Aérodrome :
LOGIN :

S'inscrire | Disclaimer

   EN    FR    IT 

 










Légende :    VFR   VFR Marginal   IFR   IFR Intensif   IFR Très Intensif
Visi : 
Plafond : 
>= 8 km
>= 3000ft
5 à 8 km
1000 à 3000 ft
1500m à 5 km
500 à 1000 ft
800 à 1500m
200 à 500 ft
< 800m
< 200 ft
Symboles :   Orages  Brouillard  Fortes neiges  Fortes précipitations  Vent > 20 kt
SIGMETs :   Divers  Orages  Givrage  Turbulence  Onde Orograph.  Cendres Volcan.






- Altitude de l'aérodrome : 1079 ft


ETIK - Illesheim Air Base

DERNIER METAR :
  • 150756Z AUTO 22013G22KT 9999 -RA BKN042 11/10 A2958 RMK AO2 RAB07E39RAB52 SLP022 P0000 T01080099 FZRANO $

METARs EXPIRÉS :
  • 150707Z AUTO 22015G24KT 9999 -RA OVC045 11/10 A2957 RMK AO2 RAB07 SLP018 FZRANO $
  • 150656Z AUTO 22018G25KT 9999 OVC046 11/10 A2956 RMK AO2 SLP015 T01110095 FZRANO $
  • 150556Z AUTO 20013KT 9999 OVC043 09/09 A2955 RMK AO2 SLP013 60008 T00850085 10085 20047 56017 FZRANO $

Prévision TAF périmée.



MET'MAP, la Météo Aéronautique d'un coup d'oeil ! - Copyright ORBIFLY Décembre 2007 - Disclaimer

ORBIFLY MET'MAP TEAM :

Programmation & Développement : Alexandra Zaïnal
Sur une idée originale de : Baudouin d'Aumeries
Assistance à la programmation : Marc-Olivier Méhu
Soutien technique & logistique : Manuel Goepfert

Contact : metmap@orbifly.com




SOURCES & CREDITS :

   NOAA